Time;durP1;ratioP1;P1;durP2;ratioP2;P2;SDS_P1;SDS_P2;PMS_P1;PMS_P2;Temp;Humidity;BMP_temperature;BMP_pressure;BME280_temperature;BME280_humidity;BME280_pressure;Samples;Min_cycle;Max_cycle;Signal;HPM_P1;HPM_P2
2023/12/13 00:01:48;;;;;;;0.32;0.32;;;;;;;2.02;99.20;96813.81;5067853;28;20410;-64
2023/12/13 00:04:19;;;;;;;0.32;0.32;;;;;;;2.51;100.00;96895.31;5067722;28;20068;-64
2023/12/13 00:06:46;;;;;;;0.30;0.30;;;;;;;2.46;99.87;96895.47;5066102;28;20408;-64
2023/12/13 00:09:13;;;;;;;0.30;0.30;;;;;;;2.23;98.87;96877.63;5065755;28;20056;-64
2023/12/13 00:11:39;;;;;;;0.30;0.30;;;;;;;1.52;97.88;96797.84;5066062;28;20041;-64
2023/12/13 00:14:08;;;;;;;0.30;0.30;;;;;;;2.08;98.70;96891.72;5065895;28;20052;-64
2023/12/13 00:16:38;;;;;;;0.30;0.30;;;;;;;1.97;99.60;96884.97;5065780;28;20048;-64
2023/12/13 00:19:06;;;;;;;0.30;0.30;;;;;;;0.94;99.85;96737.41;5082519;28;20565;-64
2023/12/13 00:21:33;;;;;;;0.30;0.30;;;;;;;1.89;100.00;96883.03;5065781;28;20133;-64
2023/12/13 00:24:00;;;;;;;0.30;0.30;;;;;;;2.07;100.00;96887.41;5065667;28;20121;-65
2023/12/13 00:26:27;;;;;;;0.30;0.30;;;;;;;2.02;100.00;96866.53;5066738;28;20063;-64
2023/12/13 00:28:53;;;;;;;0.30;0.30;;;;;;;1.41;100.00;96758.34;5067011;28;20048;-64
2023/12/13 00:31:20;;;;;;;0.30;0.30;;;;;;;1.90;100.00;96835.50;5065217;28;20064;-64
2023/12/13 00:33:47;;;;;;;0.30;0.30;;;;;;;1.97;100.00;96852.19;5082244;28;20049;-64
2023/12/13 00:36:14;;;;;;;0.40;0.40;;;;;;;2.05;100.00;96854.13;5066973;28;20059;-64
2023/12/13 00:38:41;;;;;;;0.30;0.30;;;;;;;2.12;100.00;96859.94;5065801;28;20136;-63
2023/12/13 00:41:08;;;;;;;0.40;0.40;;;;;;;1.80;100.00;96800.31;5085628;28;20047;-63
2023/12/13 00:43:34;;;;;;;0.30;0.30;;;;;;;2.16;100.00;96849.97;5085911;28;20060;-63
2023/12/13 00:46:03;;;;;;;0.30;0.30;;;;;;;1.62;100.00;96801.41;5085552;28;20121;-64
2023/12/13 00:48:30;;;;;;;0.30;0.30;;;;;;;2.14;100.00;96863.94;5085258;28;20132;-64
2023/12/13 00:50:57;;;;;;;0.30;0.30;;;;;;;2.00;100.00;96829.72;5086822;28;20059;-63
2023/12/13 00:53:24;;;;;;;0.30;0.30;;;;;;;2.15;100.00;96875.69;5085411;28;20047;-64
2023/12/13 00:55:52;;;;;;;0.30;0.30;;;;;;;1.52;100.00;96765.13;5086674;28;20058;-64
2023/12/13 00:58:19;;;;;;;0.30;0.30;;;;;;;2.18;99.59;96907.81;5087210;28;20074;-64
2023/12/13 01:00:46;;;;;;;0.38;0.38;;;;;;;1.26;99.09;96761.56;5086448;28;20048;-64
2023/12/13 01:03:13;;;;;;;0.32;0.32;;;;;;;1.39;98.49;96776.19;5087076;28;20083;-65
2023/12/13 01:05:40;;;;;;;0.40;0.40;;;;;;;2.19;98.45;96876.63;5086371;28;20052;-64
2023/12/13 01:08:07;;;;;;;0.30;0.30;;;;;;;2.09;98.80;96857.81;5084956;28;20099;-64
2023/12/13 01:10:34;;;;;;;0.30;0.30;;;;;;;1.01;97.97;96698.75;5085135;28;20078;-64
2023/12/13 01:13:01;;;;;;;0.30;0.30;;;;;;;2.17;97.36;96873.41;5085172;28;20411;-64
2023/12/13 01:15:27;;;;;;;0.30;0.30;;;;;;;1.58;96.77;96776.69;5086410;28;20052;-64
2023/12/13 01:17:54;;;;;;;0.40;0.40;;;;;;;2.14;96.64;96852.22;5086590;28;20425;-63
2023/12/13 01:20:21;;;;;;;0.30;0.30;;;;;;;1.91;96.28;96821.53;5084872;28;20120;-63
2023/12/13 01:22:48;;;;;;;0.30;0.30;;;;;;;1.84;96.58;96825.84;5086334;28;20499;-64
2023/12/13 01:25:15;;;;;;;0.30;0.30;;;;;;;1.89;97.65;96866.66;5084772;28;20138;-64
2023/12/13 01:27:42;;;;;;;0.30;0.30;;;;;;;1.84;97.71;96853.13;5084915;28;20060;-63
2023/12/13 01:30:09;;;;;;;0.30;0.30;;;;;;;1.41;98.21;96801.19;5084624;28;20059;-63
2023/12/13 01:32:36;;;;;;;0.30;0.30;;;;;;;0.93;99.55;96724.88;5086228;28;20079;-63
2023/12/13 01:35:05;;;;;;;0.30;0.30;;;;;;;1.36;98.23;96771.34;5086900;28;20048;-64
2023/12/13 01:37:31;;;;;;;0.30;0.30;;;;;;;1.14;98.64;96755.88;5086726;28;20070;-63
2023/12/13 01:39:58;;;;;;;0.30;0.30;;;;;;;1.68;98.75;96841.06;5086070;28;20063;-64
2023/12/13 01:42:25;;;;;;;0.30;0.30;;;;;;;1.64;99.92;96848.28;5086199;28;20055;-64
2023/12/13 01:44:52;;;;;;;0.30;0.30;;;;;;;0.92;100.00;96739.63;5083956;28;20045;-64
2023/12/13 01:47:19;;;;;;;0.38;0.38;;;;;;;1.37;100.00;96809.25;5085828;28;20506;-64
2023/12/13 01:49:46;;;;;;;0.32;0.32;;;;;;;1.14;100.00;96753.16;5085909;28;20058;-64
2023/12/13 01:52:15;;;;;;;0.30;0.30;;;;;;;1.77;100.00;96847.38;5084421;28;20095;-65
2023/12/13 01:54:43;;;;;;;0.30;0.30;;;;;;;1.32;100.00;96776.66;5085632;28;20048;-65
2023/12/13 01:57:13;;;;;;;0.30;0.30;;;;;;;1.71;100.00;96816.66;5084421;28;20052;-65
2023/12/13 01:59:41;;;;;;;0.30;0.30;;;;;;;1.92;100.00;96827.78;5085793;28;20143;-64
2023/12/13 02:02:09;;;;;;;0.30;0.30;;;;;;;1.84;100.00;96826.66;5085882;28;20055;-65
2023/12/13 02:04:38;;;;;;;0.30;0.30;;;;;;;1.94;100.00;96820.06;5085717;28;20125;-64
2023/12/13 02:07:05;;;;;;;0.30;0.30;;;;;;;1.97;99.76;96813.97;5084155;28;20079;-64
2023/12/13 02:09:32;;;;;;;0.40;0.40;;;;;;;1.89;99.30;96801.09;5083731;28;20051;-64
2023/12/13 02:11:59;;;;;;;0.30;0.30;;;;;;;1.93;99.63;96802.09;5085202;28;20494;-65
2023/12/13 02:14:26;;;;;;;0.30;0.30;;;;;;;1.70;99.73;96781.50;5083828;28;20121;-64
2023/12/13 02:16:53;;;;;;;0.30;0.30;;;;;;;1.75;100.00;96775.88;5085461;28;20062;-64
2023/12/13 02:19:20;;;;;;;0.30;0.30;;;;;;;1.91;100.00;96804.34;5085629;28;20106;-64
2023/12/13 02:21:47;;;;;;;0.30;0.30;;;;;;;2.00;100.00;96805.13;5085150;28;20079;-64
2023/12/13 02:24:15;;;;;;;0.30;0.30;;;;;;;1.41;100.00;96733.81;5083742;28;20588;-64
2023/12/13 02:26:43;;;;;;;0.30;0.30;;;;;;;1.40;100.00;96745.03;5084391;28;20048;-64
2023/12/13 02:29:12;;;;;;;0.30;0.30;;;;;;;1.67;100.00;96760.31;5080092;28;20534;-64
2023/12/13 02:31:40;;;;;;;0.30;0.30;;;;;;;2.03;100.00;96796.28;5063358;28;20438;-64
2023/12/13 02:34:06;;;;;;;0.30;0.30;;;;;;;2.14;100.00;96830.34;5064819;28;20052;-64
2023/12/13 02:36:33;;;;;;;0.30;0.30;;;;;;;1.90;100.00;96780.88;5063554;28;20056;-64
2023/12/13 02:39:03;;;;;;;0.30;0.30;;;;;;;1.80;99.13;96759.34;5064758;28;20084;-64
2023/12/13 02:41:32;;;;;;;0.40;0.40;;;;;;;2.18;99.65;96836.78;5084397;28;20052;-64
2023/12/13 02:44:00;;;;;;;0.30;0.30;;;;;;;2.13;99.08;96835.03;5085071;28;20177;-66
2023/12/13 02:46:28;;;;;;;0.30;0.30;;;;;;;1.74;97.76;96760.66;5084786;28;20047;-64
2023/12/13 02:48:58;;;;;;;0.30;0.30;;;;;;;1.73;99.12;96772.66;5084664;28;20792;-64
2023/12/13 02:51:26;;;;;;;0.30;0.30;;;;;;;2.03;98.69;96813.50;5084385;28;20154;-64
2023/12/13 02:53:52;;;;;;;0.30;0.30;;;;;;;1.17;99.48;96678.88;5084760;28;20090;-64
2023/12/13 02:56:19;;;;;;;0.30;0.30;;;;;;;2.07;99.34;96819.13;5082014;28;20052;-64
2023/12/13 02:58:46;;;;;;;0.30;0.30;;;;;;;2.07;98.54;96819.13;5083072;28;20087;-64
2023/12/13 03:01:13;;;;;;;0.30;0.30;;;;;;;2.12;97.43;96808.03;5084545;28;20052;-64
2023/12/13 03:03:40;;;;;;;0.30;0.30;;;;;;;2.11;96.80;96781.81;5084514;28;20529;-64
2023/12/13 03:06:07;;;;;;;0.40;0.40;;;;;;;1.83;95.65;96723.22;5084339;28;20055;-64
2023/12/13 03:08:36;;;;;;;0.30;0.30;;;;;;;2.18;96.58;96793.09;5084439;28;20441;-64
2023/12/13 03:11:03;;;;;;;0.30;0.30;;;;;;;2.18;97.55;96787.63;5084589;28;20083;-64
2023/12/13 03:13:30;;;;;;;0.40;0.40;;;;;;;1.38;97.99;96666.22;5084125;28;20431;-64
2023/12/13 03:15:57;;;;;;;0.30;0.30;;;;;;;2.31;98.21;96786.66;5082919;28;20048;-63
2023/12/13 03:18:23;;;;;;;0.30;0.30;;;;;;;2.33;98.47;96781.63;5082971;28;20056;-65
2023/12/13 03:20:50;;;;;;;0.30;0.30;;;;;;;1.86;98.86;96758.06;5083381;28;20056;-63
2023/12/13 03:23:17;;;;;;;0.32;0.32;;;;;;;2.01;97.91;96711.16;5084138;28;20051;-64
2023/12/13 03:25:44;;;;;;;0.35;0.35;;;;;;;2.38;97.87;96782.28;5084276;28;20549;-64
2023/12/13 03:28:11;;;;;;;0.30;0.30;;;;;;;2.41;97.71;96791.75;5066308;28;20105;-64
2023/12/13 03:30:37;;;;;;;0.30;0.30;;;;;;;2.24;97.77;96775.41;5082545;28;20052;-63
2023/12/13 03:33:04;;;;;;;0.30;0.30;;;;;;;2.39;98.03;96800.28;5072231;28;20067;-64
2023/12/13 03:35:31;;;;;;;0.30;0.30;;;;;;;2.45;97.14;96788.03;5075369;28;20091;-63
2023/12/13 03:37:58;;;;;;;0.30;0.30;;;;;;;2.11;96.49;96721.72;5084519;28;20484;-64
2023/12/13 03:40:25;;;;;;;0.40;0.40;;;;;;;2.60;96.80;96762.13;5082936;28;20117;-64
2023/12/13 03:42:52;;;;;;;0.30;0.30;;;;;;;2.53;96.99;96751.69;5082597;28;20442;-64
2023/12/13 03:45:23;;;;;;;0.40;0.40;;;;;;;2.06;97.30;96680.94;5084680;28;20089;-64
2023/12/13 03:47:50;;;;;;;0.30;0.30;;;;;;;2.46;97.95;96723.25;5084600;28;20044;-64
2023/12/13 03:50:17;;;;;;;0.40;0.40;;;;;;;2.44;96.98;96709.13;5084520;28;20135;-64
2023/12/13 03:52:44;;;;;;;0.30;0.30;;;;;;;0.95;96.63;96504.53;5082235;28;20044;-64
2023/12/13 03:55:12;;;;;;;0.30;0.30;;;;;;;2.61;96.88;96791.06;5084158;28;20067;-63
2023/12/13 03:57:39;;;;;;;0.30;0.30;;;;;;;2.28;97.65;96759.94;5082691;28;20135;-63
2023/12/13 04:00:07;;;;;;;0.40;0.40;;;;;;;2.48;98.01;96835.81;5082942;28;20067;-64
2023/12/13 04:02:34;;;;;;;0.30;0.30;;;;;;;2.01;99.28;96722.88;5064238;28;20059;-63
2023/12/13 04:05:01;;;;;;;0.30;0.30;;;;;;;2.56;98.81;96805.72;5063717;28;20533;-63
2023/12/13 04:07:28;;;;;;;0.30;0.30;;;;;;;2.56;98.18;96794.78;5064560;28;20084;-64
2023/12/13 04:09:54;;;;;;;0.40;0.40;;;;;;;2.37;98.69;96788.06;5067919;28;20121;-65
2023/12/13 04:12:21;;;;;;;0.30;0.30;;;;;;;2.46;98.62;96788.84;5065963;28;20049;-64
2023/12/13 04:14:48;;;;;;;0.40;0.40;;;;;;;2.49;98.68;96802.69;5082676;28;20051;-65
2023/12/13 04:17:15;;;;;;;0.40;0.40;;;;;;;2.23;98.90;96733.59;5082549;28;20053;-63
2023/12/13 04:19:41;;;;;;;0.30;0.30;;;;;;;2.65;99.42;96781.09;5065632;28;20510;-63
2023/12/13 04:22:08;;;;;;;0.30;0.30;;;;;;;2.63;98.94;96772.41;5065994;28;20053;-64
2023/12/13 04:24:35;;;;;;;0.32;0.32;;;;;;;2.69;98.45;96771.09;5065720;28;20458;-63
2023/12/13 04:27:02;;;;;;;0.30;0.30;;;;;;;2.80;98.03;96794.22;5067087;28;20136;-64
2023/12/13 04:29:29;;;;;;;0.30;0.30;;;;;;;2.35;96.60;96711.88;5067210;28;20057;-64
2023/12/13 04:31:57;;;;;;;0.40;0.40;;;;;;;2.05;96.29;96654.75;5066543;28;20052;-64
2023/12/13 04:34:24;;;;;;;0.40;0.40;;;;;;;2.38;95.86;96743.22;5067086;28;20590;-64
2023/12/13 04:36:51;;;;;;;0.40;0.40;;;;;;;2.62;95.48;96809.09;5082132;28;20072;-64
2023/12/13 04:39:18;;;;;;;0.30;0.30;;;;;;;2.41;96.04;96758.97;5067409;28;20040;-64
2023/12/13 04:41:45;;;;;;;0.40;0.40;;;;;;;2.17;96.35;96682.19;5084821;28;20117;-65
2023/12/13 04:44:12;;;;;;;0.40;0.40;;;;;;;2.46;96.50;96723.25;5086966;28;20055;-65
2023/12/13 04:46:39;;;;;;;0.40;0.40;;;;;;;2.55;97.38;96732.22;5085388;28;20113;-65
2023/12/13 04:49:06;;;;;;;0.40;0.40;;;;;;;2.85;97.59;96763.97;5087257;28;20052;-63
2023/12/13 04:51:33;;;;;;;0.40;0.40;;;;;;;2.88;98.14;96760.59;5086463;28;20056;-65
2023/12/13 04:54:00;;;;;;;0.40;0.40;;;;;;;2.93;98.40;96766.69;5086241;28;20044;-64
2023/12/13 04:56:27;;;;;;;0.35;0.35;;;;;;;2.56;97.68;96706.53;5086799;28;20059;-64
2023/12/13 04:58:55;;;;;;;0.40;0.40;;;;;;;0.83;97.13;96452.59;5084738;28;20048;-64
2023/12/13 05:01:21;;;;;;;0.40;0.40;;;;;;;3.09;97.57;96799.75;5086671;28;20048;-64
2023/12/13 05:03:48;;;;;;;0.40;0.40;;;;;;;3.18;97.03;96806.00;5086518;28;20441;-64
2023/12/13 05:06:15;;;;;;;0.30;0.30;;;;;;;3.19;97.14;96834.16;5091043;28;20815;-64
2023/12/13 05:08:42;;;;;;;0.30;0.30;;;;;;;3.20;96.39;96831.09;5086269;28;20060;-65
2023/12/13 05:11:09;;;;;;;0.30;0.30;;;;;;;3.10;95.72;96824.06;5086263;28;20062;-64
2023/12/13 05:13:36;;;;;;;0.35;0.35;;;;;;;2.85;95.04;96818.66;5068143;28;20523;-64
2023/12/13 05:16:03;;;;;;;0.35;0.35;;;;;;;2.56;96.40;96805.72;5084892;28;20077;-65
2023/12/13 05:18:30;;;;;;;0.40;0.40;;;;;;;2.77;96.95;96789.41;5084192;28;20075;-64
2023/12/13 05:20:57;;;;;;;0.30;0.30;;;;;;;2.78;96.83;96780.09;5084509;28;20105;-64
2023/12/13 05:23:23;;;;;;;0.30;0.30;;;;;;;2.34;96.00;96682.16;5084855;28;20337;-64
2023/12/13 05:25:51;;;;;;;0.40;0.40;;;;;;;2.99;95.17;96792.72;5084790;28;20056;-64
2023/12/13 05:28:18;;;;;;;0.40;0.40;;;;;;;2.57;95.63;96708.13;5084359;28;20063;-64
2023/12/13 05:30:44;;;;;;;0.35;0.35;;;;;;;3.05;95.84;96768.75;5085784;28;20149;-64
2023/12/13 05:33:12;;;;;;;0.40;0.40;;;;;;;2.96;95.93;96776.16;5084729;28;20092;-64
2023/12/13 05:35:38;;;;;;;0.40;0.40;;;;;;;2.68;96.65;96769.50;5084280;28;20059;-63
2023/12/13 05:38:05;;;;;;;0.30;0.30;;;;;;;2.21;96.78;96696.81;5084461;28;20048;-65
2023/12/13 05:40:32;;;;;;;0.35;0.35;;;;;;;1.57;100.00;96777.78;5085729;28;20052;-64
2023/12/13 05:43:00;;;;;;;0.30;0.30;;;;;;;1.25;100.00;96786.38;5086203;28;20563;-65
2023/12/13 05:45:27;;;;;;;0.30;0.30;;;;;;;1.57;100.00;96810.53;5085947;28;20059;-65
2023/12/13 05:47:54;;;;;;;0.40;0.40;;;;;;;1.58;100.00;96774.75;5086513;28;20055;-65
2023/12/13 05:50:21;;;;;;;0.30;0.30;;;;;;;1.69;100.00;96796.28;5085363;28;20048;-65
2023/12/13 05:52:48;;;;;;;0.30;0.30;;;;;;;1.53;100.00;96810.38;5083977;28;20058;-64
2023/12/13 05:55:16;;;;;;;0.30;0.30;;;;;;;1.83;100.00;96824.25;5082996;28;20052;-66
2023/12/13 05:57:42;;;;;;;0.30;0.30;;;;;;;1.76;100.00;96763.84;5083451;28;20072;-66
2023/12/13 06:00:10;;;;;;;0.30;0.30;;;;;;;2.20;100.00;96790.81;5084518;28;20057;-66
2023/12/13 06:02:37;;;;;;;0.30;0.30;;;;;;;2.42;100.00;96820.72;5085000;28;20192;-65
2023/12/13 06:05:20;;;;;;;0.30;0.30;;;;;;;2.58;100.00;96808.94;5085377;28;20048;-65
2023/12/13 06:07:47;;;;;;;0.30;0.30;;;;;;;2.56;100.00;96766.66;5085504;28;20063;-66
2023/12/13 06:10:14;;;;;;;0.30;0.30;;;;;;;2.93;100.00;96787.75;5085327;28;20514;-65
2023/12/13 06:12:40;;;;;;;0.40;0.40;;;;;;;3.01;98.65;96789.66;5085916;28;20048;-65
2023/12/13 06:15:07;;;;;;;0.32;0.32;;;;;;;2.90;98.80;96782.94;5084424;28;20082;-66
2023/12/13 06:17:34;;;;;;;0.40;0.40;;;;;;;3.22;98.52;96757.69;5084056;28;20048;-67
2023/12/13 06:20:02;;;;;;;0.40;0.40;;;;;;;3.29;98.03;96752.50;5085175;28;20547;-67
2023/12/13 06:22:28;;;;;;;0.40;0.40;;;;;;;3.05;97.32;96703.84;5083895;28;20470;-66
2023/12/13 06:24:55;;;;;;;0.40;0.40;;;;;;;3.50;95.58;96739.66;5085554;28;20078;-66
2023/12/13 06:27:22;;;;;;;0.40;0.40;;;;;;;3.54;95.93;96748.78;5083471;28;20047;-66
2023/12/13 06:29:49;;;;;;;0.40;0.40;;;;;;;3.69;96.14;96772.88;5083197;28;20048;-66
2023/12/13 06:32:15;;;;;;;0.40;0.40;;;;;;;3.77;94.71;96752.84;5084864;28;20494;-65
2023/12/13 06:34:42;;;;;;;0.40;0.40;;;;;;;4.13;92.49;96777.69;5084883;28;20131;-66
2023/12/13 06:37:09;;;;;;;0.40;0.40;;;;;;;4.02;93.28;96754.56;5085021;28;20079;-65
2023/12/13 06:39:37;;;;;;;0.40;0.40;;;;;;;3.80;94.16;96707.53;5084631;28;20058;-65
2023/12/13 06:42:08;;;;;;;0.40;0.40;;;;;;;3.27;94.53;96745.75;5083218;28;20052;-66
2023/12/13 06:44:39;;;;;;;0.40;0.40;;;;;;;3.36;96.94;96736.38;5083294;28;20142;-66
2023/12/13 06:47:06;;;;;;;0.30;0.30;;;;;;;3.42;95.48;96699.44;5084732;28;20058;-66
2023/12/13 06:49:34;;;;;;;0.40;0.40;;;;;;;4.07;94.58;96756.28;5083623;28;20048;-66
2023/12/13 06:52:02;;;;;;;0.40;0.40;;;;;;;3.95;92.91;96757.03;5084768;28;20052;-66
2023/12/13 06:54:29;;;;;;;0.40;0.40;;;;;;;2.81;93.26;96621.63;5083432;28;20052;-66
2023/12/13 06:56:56;;;;;;;0.40;0.40;;;;;;;3.74;94.45;96764.47;5084933;28;20059;-66
2023/12/13 06:59:23;;;;;;;0.40;0.40;;;;;;;3.75;94.53;96771.53;5085232;28;20048;-66
2023/12/13 07:01:50;;;;;;;0.40;0.40;;;;;;;3.94;94.39;96762.84;5084901;28;20048;-66
2023/12/13 07:04:16;;;;;;;0.43;0.43;;;;;;;4.12;92.48;96765.13;5083389;28;20048;-66
2023/12/13 07:06:44;;;;;;;0.40;0.40;;;;;;;4.24;93.10;96767.91;5083075;28;20117;-66
2023/12/13 07:09:16;;;;;;;0.40;0.40;;;;;;;3.39;91.61;96637.16;5084573;28;20131;-66
2023/12/13 07:11:43;;;;;;;0.40;0.40;;;;;;;3.61;91.41;96677.88;5076672;28;20140;-62
2023/12/13 07:14:10;;;;;;;0.45;0.45;;;;;;;3.84;91.35;96642.72;5065466;28;20510;-63
2023/12/13 07:16:37;;;;;;;0.40;0.40;;;;;;;3.80;90.62;96628.09;5076989;28;20131;-64
2023/12/13 07:19:04;;;;;;;0.40;0.40;;;;;;;4.47;90.87;96736.22;5073041;28;20105;-64
2023/12/13 07:21:30;;;;;;;0.47;0.47;;;;;;;4.45;90.62;96713.84;5073586;28;20056;-67
2023/12/13 07:23:57;;;;;;;0.50;0.50;;;;;;;4.50;89.16;96742.97;5063801;28;20424;-64
2023/12/13 07:26:24;;;;;;;0.47;0.47;;;;;;;4.51;87.43;96667.78;5085582;28;20061;-63
2023/12/13 07:28:55;;;;;;;0.40;0.40;;;;;;;3.34;88.07;96459.44;5085511;28;20066;-65
2023/12/13 07:31:23;;;;;;;0.50;0.50;;;;;;;5.14;88.00;96734.97;5072981;28;20056;-68
2023/12/13 07:33:50;;;;;;;0.40;0.40;;;;;;;4.29;88.46;96605.16;5074165;28;20044;-64
2023/12/13 07:36:16;;;;;;;0.40;0.40;;;;;;;4.93;87.92;96695.84;5083066;28;20090;-68
2023/12/13 07:38:43;;;;;;;0.45;0.45;;;;;;;4.41;88.10;96596.97;5069484;28;20507;-62
2023/12/13 07:41:10;;;;;;;0.40;0.40;;;;;;;4.90;88.95;96663.59;5070706;28;20044;-62
2023/12/13 07:43:39;;;;;;;0.50;0.50;;;;;;;5.33;88.90;96694.00;5082326;28;20425;-63
2023/12/13 07:46:06;;;;;;;0.50;0.50;;;;;;;5.73;88.96;96708.56;5081021;28;20575;-61
2023/12/13 07:48:33;;;;;;;0.50;0.50;;;;;;;3.98;88.17;96457.72;5098708;28;20540;-64
2023/12/13 07:51:00;;;;;;;0.50;0.50;;;;;;;6.09;88.77;96711.25;5086950;28;20058;-63
2023/12/13 07:53:27;;;;;;;0.60;0.60;;;;;;;6.36;88.29;96718.69;5074937;28;20085;-62
2023/12/13 07:55:54;;;;;;;0.50;0.50;;;;;;;6.56;87.85;96709.41;5065732;28;20060;-65
2023/12/13 07:58:21;;;;;;;0.50;0.50;;;;;;;6.45;86.44;96663.53;5080806;28;20060;-66
2023/12/13 08:00:47;;;;;;;0.50;0.50;;;;;;;6.87;84.78;96692.13;5076325;28;20051;-65
2023/12/13 08:03:14;;;;;;;0.60;0.60;;;;;;;6.45;83.24;96584.53;5084921;28;20044;-62
2023/12/13 08:05:41;;;;;;;0.60;0.60;;;;;;;7.17;83.24;96707.88;5086441;28;20062;-58
2023/12/13 08:08:09;;;;;;;0.60;0.60;;;;;;;7.12;82.78;96688.84;5084546;28;20048;-62
2023/12/13 08:10:36;;;;;;;0.70;0.70;;;;;;;6.57;83.02;96627.66;5081999;28;20047;-60
2023/12/13 08:13:03;;;;;;;0.60;0.60;;;;;;;6.74;82.71;96694.16;5066324;28;20048;-59
2023/12/13 08:15:30;;;;;;;0.60;0.60;;;;;;;5.52;82.36;96512.91;5081340;28;20052;-63
2023/12/13 08:17:57;;;;;;;0.60;0.60;;;;;;;6.82;81.41;96684.94;5078877;28;20048;-63
2023/12/13 08:20:28;;;;;;;0.60;0.60;;;;;;;6.65;82.04;96644.03;5077586;28;20044;-61
2023/12/13 08:23:00;;;;;;;0.60;0.60;;;;;;;6.27;83.49;96588.78;5067942;28;20084;-61
2023/12/13 08:25:27;;;;;;;0.60;0.60;;;;;;;6.97;84.07;96670.38;5081378;28;20036;-61
2023/12/13 08:27:54;;;;;;;0.60;0.60;;;;;;;7.04;83.31;96658.72;5067056;28;20063;-61
2023/12/13 08:30:21;;;;;;;0.60;0.60;;;;;;;7.22;81.85;96644.22;5074798;28;20461;-60
2023/12/13 08:32:48;;;;;;;0.60;0.60;;;;;;;7.46;80.75;96660.53;5070305;28;20048;-65
2023/12/13 08:35:15;;;;;;;0.60;0.60;;;;;;;7.84;79.14;96692.84;5076232;28;20049;-60
2023/12/13 08:37:42;;;;;;;0.60;0.60;;;;;;;7.87;79.08;96696.88;5067750;28;20066;-61
2023/12/13 08:40:10;;;;;;;0.60;0.60;;;;;;;7.95;77.43;96693.88;5072809;28;20052;-66
2023/12/13 08:42:38;;;;;;;0.70;0.70;;;;;;;7.62;76.80;96636.47;5083972;28;20052;-62
2023/12/13 08:45:11;;;;;;;0.60;0.60;;;;;;;7.74;75.66;96655.63;5088999;28;20517;-67
2023/12/13 08:47:38;;;;;;;0.65;0.65;;;;;;;7.92;76.63;96617.41;5085347;28;20048;-65
2023/12/13 08:50:06;;;;;;;0.70;0.70;;;;;;;7.71;75.47;96535.06;5067198;28;20392;-65
2023/12/13 08:52:33;;;;;;;0.70;0.70;;;;;;;8.50;75.29;96605.16;5080703;28;20064;-65
2023/12/13 08:54:59;;;;;;;0.70;0.70;;;;;;;8.27;73.40;96529.03;5081087;28;20055;-66
2023/12/13 08:57:26;;;;;;;0.70;0.70;;;;;;;8.96;74.76;96639.84;5086766;28;20044;-68
2023/12/13 08:59:53;;;;;;;0.70;0.70;;;;;;;9.21;75.42;96651.31;5084874;28;20051;-65
2023/12/13 09:02:31;;;;;;;0.70;0.70;;;;;;;9.25;75.04;96657.69;5084985;28;20075;-68
2023/12/13 09:04:58;;;;;;;0.70;0.70;;;;;;;8.43;74.26;96604.22;5086209;28;20528;-64
2023/12/13 09:07:25;;;;;;;0.70;0.70;;;;;;;9.01;74.99;96653.34;5086210;28;20048;-64
2023/12/13 09:09:52;;;;;;;0.80;0.80;;;;;;;8.93;75.55;96618.50;5085663;28;20063;-67
2023/12/13 09:12:19;;;;;;;0.70;0.70;;;;;;;8.85;76.16;96638.09;5085932;28;20063;-65
2023/12/13 09:14:45;;;;;;;0.70;0.70;;;;;;;8.74;76.03;96623.31;5084945;28;20059;-67
2023/12/13 09:17:12;;;;;;;0.68;0.68;;;;;;;8.27;75.12;96567.66;5085972;28;20521;-65
2023/12/13 09:19:39;;;;;;;0.80;0.80;;;;;;;9.07;74.65;96623.47;5077284;28;20055;-68
2023/12/13 09:22:06;;;;;;;0.73;0.73;;;;;;;9.30;73.35;96621.44;5086159;28;20101;-66
2023/12/13 09:24:32;;;;;;;0.90;0.90;;;;;;;8.68;72.39;96481.19;5085954;28;20048;-67
2023/12/13 09:26:59;;;;;;;0.80;0.80;;;;;;;9.58;71.88;96605.25;5086293;28;20062;-65
2023/12/13 09:29:26;;;;;;;0.75;0.75;;;;;;;9.32;70.00;96524.34;5081415;28;20125;-65
2023/12/13 09:31:53;;;;;;;0.70;0.70;;;;;;;10.02;69.26;96595.16;5076931;28;20063;-67
2023/12/13 09:34:21;;;;;;;0.80;0.80;;;;;;;9.77;68.45;96546.25;5085716;28;20054;-68
2023/12/13 09:36:48;;;;;;;0.80;0.80;;;;;;;9.00;68.91;96430.00;5085848;28;20048;-68
2023/12/13 09:39:16;;;;;;;0.77;0.77;;;;;;;10.21;68.56;96572.88;5085638;28;20480;-64
2023/12/13 09:41:52;;;;;;;0.80;0.80;;;;;;;8.92;69.79;96389.63;5085375;28;20043;-67
2023/12/13 09:44:22;;;;;;;0.70;0.70;;;;;;;10.36;68.58;96580.16;5076659;28;20503;-65
2023/12/13 09:46:51;;;;;;;0.80;0.80;;;;;;;10.40;68.13;96567.13;5065163;28;20051;-67
2023/12/13 09:49:20;;;;;;;0.80;0.80;;;;;;;9.90;68.45;96501.38;5072276;28;20054;-67
2023/12/13 09:52:05;;;;;;;0.80;0.80;;;;;;;10.39;67.06;96573.88;5085239;28;20064;-64
2023/12/13 09:54:34;;;;;;;0.80;0.80;;;;;;;10.49;67.71;96562.09;5085480;28;20128;-64
2023/12/13 09:57:04;;;;;;;0.80;0.80;;;;;;;9.99;69.43;96540.56;5085344;28;20048;-66
2023/12/13 09:59:31;;;;;;;0.80;0.80;;;;;;;10.00;68.81;96561.56;5085086;28;20052;-67
2023/12/13 10:01:59;;;;;;;0.80;0.80;;;;;;;9.94;68.57;96568.56;5085041;28;20417;-65
2023/12/13 10:04:29;;;;;;;0.70;0.70;;;;;;;9.78;69.06;96575.50;5084730;28;20117;-67
2023/12/13 10:06:56;;;;;;;0.80;0.80;;;;;;;9.15;70.61;96449.13;5071767;28;20137;-65
2023/12/13 10:09:27;;;;;;;0.80;0.80;;;;;;;8.42;71.25;96321.97;5073750;28;20616;-67
2023/12/13 10:11:58;;;;;;;0.75;0.75;;;;;;;9.53;71.49;96483.94;5088782;28;20119;-63
2023/12/13 10:14:25;;;;;;;0.70;0.70;;;;;;;10.38;71.03;96561.22;5066703;28;20044;-64
2023/12/13 10:16:53;;;;;;;0.80;0.80;;;;;;;10.47;69.34;96558.91;5074248;28;20137;-66
2023/12/13 10:19:35;;;;;;;0.90;0.90;;;;;;;10.34;67.99;96493.91;5062777;28;20134;-68
2023/12/13 10:22:05;;;;;;;0.80;0.80;;;;;;;10.75;67.76;96540.97;5084484;28;20060;-65
2023/12/13 10:24:33;;;;;;;0.85;0.85;;;;;;;10.35;67.28;96548.09;5084993;28;20055;-67
2023/12/13 10:27:00;;;;;;;0.88;0.88;;;;;;;10.43;67.33;96547.00;5084272;28;20056;-63
2023/12/13 10:29:29;;;;;;;0.80;0.80;;;;;;;10.97;65.98;96553.78;5085029;28;20136;-65
2023/12/13 10:31:59;;;;;;;0.90;0.90;;;;;;;9.73;66.71;96341.56;5084519;28;20134;-66
2023/12/13 10:34:27;;;;;;;0.90;0.90;;;;;;;11.06;65.42;96532.06;5083623;28;20554;-64
2023/12/13 10:36:55;;;;;;;0.90;0.90;;;;;;;11.53;64.26;96554.16;5079460;28;20052;-63
2023/12/13 10:39:25;;;;;;;0.90;0.90;;;;;;;11.95;64.21;96554.34;5082721;28;20051;-67
2023/12/13 10:41:56;;;;;;;0.90;0.90;;;;;;;12.27;63.60;96546.94;5084513;28;20071;-65
2023/12/13 10:44:26;;;;;;;0.90;0.90;;;;;;;12.12;62.30;96492.56;5079374;28;20053;-66
2023/12/13 10:46:58;;;;;;;1.00;1.00;;;;;;;12.54;61.45;96514.84;5075324;28;20055;-67
2023/12/13 10:49:26;;;;;;;1.00;1.00;;;;;;;12.67;60.38;96524.38;5084659;28;20426;-66
2023/12/13 10:51:54;;;;;;;0.98;0.98;;;;;;;12.70;59.17;96518.03;5084413;28;20052;-67
2023/12/13 10:54:21;;;;;;;1.00;1.00;;;;;;;12.04;59.89;96452.09;5084590;28;20060;-66
2023/12/13 10:56:49;;;;;;;1.00;1.00;;;;;;;11.40;58.88;96342.13;5084432;28;20387;-68
2023/12/13 10:59:17;;;;;;;1.00;1.00;;;;;;;12.00;60.03;96479.03;5084018;28;20581;-65
2023/12/13 11:01:46;;;;;;;1.00;1.00;;;;;;;12.18;59.60;96513.19;5084229;28;20048;-65
2023/12/13 11:04:16;;;;;;;0.90;0.90;;;;;;;11.44;60.44;96406.72;5071182;28;20254;-67
2023/12/13 11:06:46;;;;;;;;;;;;;;;12.07;60.78;96517.94;5075233;28;20045;-63
2023/12/13 11:09:19;;;;;;;0.93;0.93;;;;;;;11.65;61.02;96476.19;5071783;28;19932;-62
2023/12/13 11:11:46;;;;;;;1.10;1.10;;;;;;;11.54;60.85;96455.91;5083896;28;20062;-63
2023/12/13 11:14:15;;;;;;;0.90;0.90;;;;;;;11.89;61.16;96483.78;5078841;28;20057;-63
2023/12/13 11:16:46;;;;;;;0.90;0.90;;;;;;;11.92;61.25;96488.53;5073303;28;20054;-67
2023/12/13 11:19:19;;;;;;;0.90;0.90;;;;;;;11.27;62.77;96479.53;5084983;28;20052;-67
2023/12/13 11:21:47;;;;;;;0.80;0.80;;;;;;;10.22;63.46;96336.47;5077424;28;20049;-66
2023/12/13 11:24:16;;;;;;;0.90;0.90;;;;;;;10.68;65.20;96430.91;5070197;28;20052;-65
2023/12/13 11:26:50;;;;;;;0.90;0.90;;;;;;;11.31;64.00;96474.81;5078119;28;20052;-67
2023/12/13 11:29:24;;;;;;;;;;;;;;;11.10;64.28;96477.44;5069718;28;20056;-67
2023/12/13 11:32:02;;;;;;;0.80;0.80;;;;;;;10.44;66.12;96428.75;5076466;28;20397;-62
2023/12/13 11:34:48;;;;;;;0.88;0.88;;;;;;;11.10;65.44;96450.53;5068034;28;20067;-66
2023/12/13 11:37:16;;;;;;;0.82;0.82;;;;;;;11.40;63.54;96447.50;5086078;28;20056;-66
2023/12/13 11:39:44;;;;;;;0.90;0.90;;;;;;;11.00;63.74;96364.59;5087943;28;20064;-66
2023/12/13 11:42:14;;;;;;;0.80;0.80;;;;;;;11.59;63.16;96436.88;5086447;28;20533;-65